Waterford, California
Current Conditions -  °F | °C
As of 12:53 PM on Sunday 23 Nov 2014 (Local Time) from KMOD Reporting Station
Clear Clear  
Wind Chill: 61°   Ceiling: Unl
Heat Index: 61°   Visibility: 10mi
Dew Point: 40°   Wind: 8mph
Humidity: 46%   Direction: 340°NNW
Pressure: 30.29"   Gusts: NA
Location:  37.64°N, 120.76°W
Report Text: KMOD 232053Z 34007KT 10SM CLR 16/04 A3029 RMK AO2 SLP258 T01610044 58012 $
Loading
Personal Weather Stations






























Interactive Weather Map New forecast layout! Learn more

10-Day Weather Forecast

Advertisements
Track Severe Weather on mobile